Time;durP1;ratioP1;P1;durP2;ratioP2;P2;SDS_P1;SDS_P2;PMS_P1;PMS_P2;Temp;Humidity;BMP_temperature;BMP_pressure;BME280_temperature;BME280_humidity;BME280_pressure;Samples;Min_cycle;Max_cycle;Signal;HPM_P1;HPM_P2
2020/12/22 00:00:26;;;;;;;18.00;11.48;;;8.70;99.90;;;;;;10257676;28;20406;-68
2020/12/22 00:05:27;;;;;;;20.42;11.85;;;8.70;99.90;;;;;;10262577;28;20497;-68
2020/12/22 00:10:28;;;;;;;22.27;12.18;;;8.70;99.90;;;;;;10254241;28;20121;-68
2020/12/22 00:15:30;;;;;;;18.15;9.82;;;8.70;99.90;;;;;;10267149;28;20053;-68
2020/12/22 00:20:41;;;;;;;14.15;9.68;;;8.80;99.90;;;;;;10243563;28;20050;-68
2020/12/22 00:25:44;;;;;;;16.33;9.00;;;8.80;99.90;;;;;;10247537;28;20061;-69
2020/12/22 00:30:49;;;;;;;14.00;9.50;;;8.80;99.90;;;;;;10250939;28;20054;-69
2020/12/22 00:35:50;;;;;;;11.77;8.18;;;8.90;99.90;;;;;;10249734;28;20061;-68
2020/12/22 00:40:52;;;;;;;12.88;7.10;;;8.90;99.90;;;;;;10244992;28;20050;-68
2020/12/22 00:45:53;;;;;;;11.63;7.32;;;9.00;99.90;;;;;;10247528;28;20054;-67
2020/12/22 00:51:01;;;;;;;10.00;6.07;;;9.00;99.90;;;;;;10216335;28;20057;-67
2020/12/22 00:56:02;;;;;;;10.32;5.95;;;9.00;99.90;;;;;;10262875;28;27638;-68
2020/12/22 01:01:05;;;;;;;7.90;5.65;;;9.00;99.90;;;;;;10266253;28;20454;-67
2020/12/22 01:06:06;;;;;;;6.68;4.97;;;9.10;99.90;;;;;;10266151;28;20508;-67
2020/12/22 01:11:07;;;;;;;7.10;5.05;;;9.10;99.90;;;;;;10264242;28;20074;-68
2020/12/22 01:16:08;;;;;;;8.85;5.72;;;9.20;99.90;;;;;;10254423;28;20082;-68
2020/12/22 01:21:20;;;;;;;7.20;5.13;;;9.20;99.90;;;;;;10245652;28;20054;-68
2020/12/22 01:26:22;;;;;;;6.07;5.20;;;9.20;99.90;;;;;;10247671;28;20057;-68
2020/12/22 01:31:26;;;;;;;6.85;5.60;;;9.20;99.90;;;;;;10245347;28;20047;-70
2020/12/22 01:36:30;;;;;;;6.35;5.38;;;9.20;99.90;;;;;;10246810;28;20042;-67
2020/12/22 01:41:33;;;;;;;10.85;5.47;;;9.30;99.90;;;;;;10250961;28;20046;-67
2020/12/22 01:46:39;;;;;;;6.25;5.05;;;9.30;99.90;;;;;;10246371;28;20050;-68
2020/12/22 01:51:45;;;;;;;6.20;4.13;;;9.30;99.90;;;;;;10244447;28;20061;-67
2020/12/22 01:56:47;;;;;;;6.45;4.70;;;9.30;99.90;;;;;;10254913;28;20055;-68
2020/12/22 02:01:50;;;;;;;5.80;4.28;;;9.40;99.90;;;;;;10260521;28;20511;-66
2020/12/22 02:06:51;;;;;;;5.55;4.30;;;9.40;99.90;;;;;;10260841;28;20049;-65
2020/12/22 02:11:53;;;;;;;4.20;3.33;;;9.40;99.90;;;;;;10244319;28;20082;-65
2020/12/22 02:16:54;;;;;;;5.60;4.20;;;9.40;99.90;;;;;;10263339;28;21224;-65
2020/12/22 02:21:59;;;;;;;7.97;3.97;;;9.50;99.90;;;;;;10262440;28;20041;-65
2020/12/22 02:27:02;;;;;;;6.95;4.55;;;9.50;99.90;;;;;;10263645;28;20054;-65
2020/12/22 02:32:03;;;;;;;8.32;4.07;;;9.50;99.90;;;;;;10255153;28;20824;-66
2020/12/22 02:37:05;;;;;;;7.53;4.80;;;9.50;99.90;;;;;;10263234;28;20183;-65
2020/12/22 02:42:06;;;;;;;10.45;5.85;;;9.50;99.90;;;;;;10261055;28;20057;-66
2020/12/22 02:47:12;;;;;;;6.25;4.13;;;9.50;99.90;;;;;;10261046;28;20062;-66
2020/12/22 02:52:14;;;;;;;6.05;4.00;;;9.50;99.90;;;;;;10254607;28;20177;-66
2020/12/22 02:57:16;;;;;;;5.55;3.10;;;9.50;99.90;;;;;;10262254;28;20042;-67
2020/12/22 03:02:17;;;;;;;4.30;2.90;;;9.60;99.90;;;;;;10261960;28;20046;-66
2020/12/22 03:07:20;;;;;;;3.70;2.50;;;9.60;99.90;;;;;;10272359;28;20485;-66
2020/12/22 03:12:21;;;;;;;5.55;2.08;;;9.60;99.90;;;;;;10259597;28;20689;-67
2020/12/22 03:17:23;;;;;;;3.45;1.60;;;9.70;99.90;;;;;;10257651;28;20673;-66
2020/12/22 03:22:35;;;;;;;1.85;1.30;;;9.70;99.90;;;;;;10176822;28;20046;-66
2020/12/22 03:27:36;;;;;;;3.50;1.08;;;9.80;99.90;;;;;;10264936;28;20527;-67
2020/12/22 03:32:38;;;;;;;0.98;0.50;;;9.80;99.90;;;;;;10257448;28;20050;-66
2020/12/22 03:37:40;;;;;;;0.40;0.30;;;10.00;99.90;;;;;;10260178;28;20038;-67
2020/12/22 03:42:43;;;;;;;0.32;0.30;;;10.10;99.90;;;;;;10258516;28;20633;-67
2020/12/22 03:47:44;;;;;;;0.70;0.30;;;10.20;99.90;;;;;;10258336;28;20453;-67
2020/12/22 03:52:58;;;;;;;1.38;0.28;;;10.20;99.90;;;;;;10256050;28;20462;-67
2020/12/22 03:57:59;;;;;;;0.20;0.20;;;10.20;99.90;;;;;;10261867;28;20051;-67
2020/12/22 04:03:01;;;;;;;0.63;0.10;;;10.20;99.90;;;;;;10256704;28;20062;-67
2020/12/22 04:08:04;;;;;;;0.55;0.20;;;10.20;99.90;;;;;;10263891;28;20070;-66
2020/12/22 04:13:06;;;;;;;0.20;0.20;;;10.20;99.90;;;;;;10260423;28;20050;-66
2020/12/22 04:18:07;;;;;;;0.43;0.20;;;10.20;99.90;;;;;;10262579;28;20054;-66
2020/12/22 04:23:13;;;;;;;0.82;0.30;;;10.30;99.90;;;;;;10256328;28;20046;-66
2020/12/22 04:28:15;;;;;;;2.08;0.43;;;10.30;99.90;;;;;;10255397;28;20042;-66
2020/12/22 04:33:17;;;;;;;1.73;0.50;;;10.30;99.90;;;;;;10260304;28;20054;-66
2020/12/22 04:38:19;;;;;;;4.18;0.57;;;10.30;99.90;;;;;;10258022;28;20058;-66
2020/12/22 04:43:21;;;;;;;3.60;1.25;;;10.30;99.90;;;;;;10255250;28;20065;-66
2020/12/22 04:48:25;;;;;;;2.95;0.90;;;10.30;99.90;;;;;;10252456;28;20051;-66
2020/12/22 04:53:33;;;;;;;1.42;1.00;;;10.40;99.90;;;;;;10259315;28;20046;-66
2020/12/22 04:58:35;;;;;;;1.92;0.70;;;10.40;99.90;;;;;;10260171;28;20055;-66
2020/12/22 05:03:37;;;;;;;1.45;0.70;;;10.50;99.90;;;;;;10262850;28;20050;-66
2020/12/22 05:08:38;;;;;;;1.75;0.73;;;10.50;99.90;;;;;;10255894;28;20568;-66
2020/12/22 05:13:40;;;;;;;0.95;0.55;;;10.50;99.90;;;;;;10261957;28;20054;-66
2020/12/22 05:18:41;;;;;;;1.65;0.45;;;10.50;99.90;;;;;;10262853;28;20058;-66
2020/12/22 05:23:55;;;;;;;2.15;0.50;;;10.40;99.90;;;;;;10213401;28;20045;-66
2020/12/22 05:29:06;;;;;;;0.38;0.30;;;10.50;99.90;;;;;;10271277;28;20062;-66
2020/12/22 05:34:10;;;;;;;1.42;0.30;;;10.50;99.90;;;;;;10259656;28;20120;-66
2020/12/22 05:39:12;;;;;;;2.28;0.30;;;10.50;99.90;;;;;;10266839;28;20049;-66
2020/12/22 05:44:14;;;;;;;2.00;0.75;;;10.60;99.90;;;;;;10262887;28;20885;-66
2020/12/22 05:49:15;;;;;;;0.60;0.30;;;10.50;99.90;;;;;;10265498;28;20421;-66
2020/12/22 05:54:17;;;;;;;0.95;0.50;;;10.60;99.90;;;;;;10266654;28;20050;-66
2020/12/22 05:59:20;;;;;;;1.27;0.40;;;10.60;99.90;;;;;;10263665;28;20144;-66
2020/12/22 06:04:21;;;;;;;1.17;0.40;;;10.70;99.90;;;;;;10261915;28;20141;-65
2020/12/22 06:09:22;;;;;;;1.42;0.50;;;10.80;99.90;;;;;;10265695;28;20053;-66
2020/12/22 06:14:24;;;;;;;3.25;0.65;;;10.90;99.90;;;;;;10264727;28;20061;-66
2020/12/22 06:19:26;;;;;;;0.98;0.50;;;11.00;99.90;;;;;;10267856;28;20054;-66
2020/12/22 06:24:31;;;;;;;1.45;0.30;;;11.00;99.90;;;;;;10260653;28;20062;-66
2020/12/22 06:29:39;;;;;;;0.47;0.30;;;11.10;99.90;;;;;;10268132;28;20061;-65
2020/12/22 06:34:41;;;;;;;3.90;0.20;;;11.30;99.90;;;;;;10258244;28;20136;-65
2020/12/22 06:39:44;;;;;;;0.30;0.20;;;11.30;99.90;;;;;;10264898;28;20054;-65
2020/12/22 06:44:46;;;;;;;0.47;0.20;;;11.30;99.90;;;;;;10261448;28;20054;-65
2020/12/22 06:49:51;;;;;;;0.47;0.30;;;11.30;99.90;;;;;;10260224;28;20065;-65
2020/12/22 06:54:54;;;;;;;0.98;0.25;;;11.30;99.90;;;;;;10261562;28;20050;-65
2020/12/22 06:59:56;;;;;;;0.40;0.30;;;11.20;99.90;;;;;;10252640;28;20046;-65
2020/12/22 07:05:06;;;;;;;1.92;0.30;;;11.20;99.90;;;;;;10257733;28;20054;-65
2020/12/22 07:10:10;;;;;;;1.15;0.40;;;11.10;99.90;;;;;;10259948;28;20647;-65
2020/12/22 07:15:12;;;;;;;4.50;0.30;;;11.10;99.90;;;;;;10255388;28;20058;-65
2020/12/22 07:20:14;;;;;;;3.65;0.40;;;11.10;99.90;;;;;;10255731;28;21511;-65
2020/12/22 07:25:15;;;;;;;1.63;0.35;;;11.10;99.90;;;;;;10249888;28;20043;-65
2020/12/22 07:30:18;;;;;;;2.97;0.73;;;11.10;99.90;;;;;;10260136;28;20089;-65
2020/12/22 07:35:19;;;;;;;2.30;0.70;;;11.10;99.90;;;;;;10257451;28;20062;-65
2020/12/22 07:40:27;;;;;;;3.90;0.50;;;11.10;99.90;;;;;;10252711;28;20082;-65
2020/12/22 07:45:29;;;;;;;2.08;0.70;;;11.10;99.90;;;;;;10259158;28;20053;-65
2020/12/22 07:50:30;;;;;;;2.08;0.50;;;11.10;99.90;;;;;;10255821;28;20040;-65
2020/12/22 07:55:39;;;;;;;3.47;0.50;;;11.10;99.90;;;;;;10258994;28;20039;-66
2020/12/22 08:00:41;;;;;;;6.78;1.23;;;11.10;99.90;;;;;;10256237;28;20038;-65
2020/12/22 08:06:02;;;;;;;3.40;0.95;;;11.10;99.90;;;;;;10256871;28;20065;-65
2020/12/22 08:11:05;;;;;;;1.77;0.60;;;11.10;99.90;;;;;;10201767;28;20054;-66
2020/12/22 08:16:07;;;;;;;2.28;0.30;;;11.10;99.90;;;;;;10267702;28;20050;-66
2020/12/22 08:21:10;;;;;;;0.38;0.28;;;11.10;99.90;;;;;;10259346;28;20066;-66
2020/12/22 08:26:14;;;;;;;0.30;0.30;;;11.20;99.90;;;;;;10264919;28;20042;-67
2020/12/22 08:31:17;;;;;;;1.05;0.45;;;11.10;99.90;;;;;;10252594;28;20054;-67
2020/12/22 08:36:21;;;;;;;1.40;0.30;;;11.20;99.90;;;;;;10262398;28;20053;-67
2020/12/22 08:41:22;;;;;;;1.45;0.20;;;11.20;99.90;;;;;;10268063;28;20043;-66
2020/12/22 08:46:23;;;;;;;2.72;0.20;;;11.20;99.90;;;;;;10257307;28;21375;-66
2020/12/22 08:51:25;;;;;;;0.35;0.13;;;11.20;99.90;;;;;;10265672;28;20050;-66
2020/12/22 08:56:27;;;;;;;0.68;0.30;;;11.30;99.90;;;;;;10265397;28;20497;-66
2020/12/22 09:01:37;;;;;;;0.30;0.20;;;11.30;99.90;;;;;;10267682;28;20520;-66
2020/12/22 09:06:41;;;;;;;0.50;0.15;;;11.40;99.90;;;;;;10264655;28;20515;-66
2020/12/22 09:11:45;;;;;;;2.08;0.20;;;11.40;99.90;;;;;;10264844;28;20187;-66
2020/12/22 09:16:51;;;;;;;2.95;0.17;;;11.50;99.90;;;;;;10266513;28;20058;-64
2020/12/22 09:22:02;;;;;;;0.55;0.10;;;11.50;99.90;;;;;;10266302;28;20069;-63
2020/12/22 09:27:12;;;;;;;1.70;0.20;;;11.60;99.90;;;;;;10214347;28;20252;-61
2020/12/22 09:32:14;;;;;;;2.50;0.10;;;11.70;99.90;;;;;;10262738;28;20054;-62
2020/12/22 09:37:15;;;;;;;0.50;0.20;;;11.70;99.90;;;;;;10260488;28;20529;-62
2020/12/22 09:42:18;;;;;;;0.60;0.25;;;11.80;99.90;;;;;;10255536;28;20061;-63
2020/12/22 09:47:20;;;;;;;3.20;0.50;;;11.80;99.90;;;;;;10272585;28;20054;-63
2020/12/22 09:52:21;;;;;;;0.25;0.17;;;11.80;99.90;;;;;;10266940;28;20054;-61
2020/12/22 09:57:22;;;;;;;0.60;0.20;;;12.00;99.90;;;;;;10263536;28;20061;-61
2020/12/22 10:02:24;;;;;;;0.20;0.10;;;12.00;99.90;;;;;;10282494;28;20068;-61
2020/12/22 10:07:25;;;;;;;0.20;0.20;;;12.00;99.90;;;;;;10267920;28;20603;-61
2020/12/22 10:12:26;;;;;;;1.75;0.20;;;12.10;99.90;;;;;;10266609;28;20038;-62
2020/12/22 10:17:28;;;;;;;0.63;0.20;;;12.10;99.90;;;;;;10264915;28;20158;-62
2020/12/22 10:22:30;;;;;;;0.45;0.10;;;12.20;99.90;;;;;;10265312;28;20058;-62
2020/12/22 10:27:31;;;;;;;0.40;0.20;;;12.30;99.90;;;;;;10272673;28;20042;-62
2020/12/22 10:32:33;;;;;;;0.80;0.13;;;12.30;99.90;;;;;;10268584;28;20054;-62
2020/12/22 10:37:34;;;;;;;0.20;0.10;;;12.30;99.90;;;;;;10267337;28;20053;-61
2020/12/22 10:42:35;;;;;;;0.50;0.22;;;12.30;99.90;;;;;;10271309;28;20489;-61
2020/12/22 10:47:36;;;;;;;1.25;0.10;;;12.30;99.90;;;;;;10269683;28;20062;-62
2020/12/22 10:52:37;;;;;;;0.47;0.30;;;12.30;99.90;;;;;;10261319;28;20046;-62
2020/12/22 10:57:39;;;;;;;0.10;0.10;;;12.40;99.90;;;;;;10270487;28;20050;-62
2020/12/22 11:02:40;;;;;;;0.20;0.10;;;12.50;99.90;;;;;;10273013;28;20735;-62
2020/12/22 11:07:51;;;;;;;0.22;0.10;;;12.60;99.90;;;;;;10259482;28;20113;-62
2020/12/22 11:12:52;;;;;;;0.20;0.20;;;12.60;99.90;;;;;;10264708;28;20046;-63
2020/12/22 11:17:53;;;;;;;1.40;0.17;;;12.70;99.90;;;;;;10270043;28;20042;-63
2020/12/22 11:22:54;;;;;;;0.52;0.10;;;12.80;99.90;;;;;;10262626;28;20140;-63
2020/12/22 11:27:56;;;;;;;0.17;0.10;;;12.80;99.90;;;;;;10266136;28;20046;-63
2020/12/22 11:32:58;;;;;;;1.48;0.20;;;12.80;99.90;;;;;;10265778;28;20049;-63
2020/12/22 11:37:59;;;;;;;0.30;0.10;;;12.80;99.90;;;;;;10268309;28;20038;-63
2020/12/22 11:43:00;;;;;;;1.85;0.82;;;12.90;99.90;;;;;;10266912;28;20853;-63
2020/12/22 11:48:02;;;;;;;0.45;0.20;;;13.00;99.90;;;;;;10259099;28;20065;-63
2020/12/22 11:53:03;;;;;;;0.68;0.10;;;13.00;99.90;;;;;;10260753;28;20050;-63
2020/12/22 11:58:07;;;;;;;0.22;0.20;;;13.10;99.90;;;;;;10261236;28;20054;-63
2020/12/22 12:03:09;;;;;;;0.30;0.20;;;13.20;99.90;;;;;;10264831;28;20053;-62
2020/12/22 12:08:10;;;;;;;0.20;0.15;;;13.10;99.90;;;;;;10262909;28;20401;-63
2020/12/22 12:13:11;;;;;;;0.40;0.20;;;13.10;99.90;;;;;;10264936;28;20520;-63
2020/12/22 12:18:12;;;;;;;3.58;2.88;;;13.10;99.90;;;;;;10259631;28;20132;-63
2020/12/22 12:23:13;;;;;;;0.93;0.30;;;13.10;99.90;;;;;;10270247;28;20053;-63
2020/12/22 12:28:26;;;;;;;1.00;0.35;;;13.10;99.90;;;;;;10213693;28;20051;-63
2020/12/22 12:33:28;;;;;;;2.65;0.30;;;13.30;99.90;;;;;;10272604;28;20045;-63
2020/12/22 12:38:29;;;;;;;0.40;0.40;;;13.30;99.90;;;;;;10267684;28;20054;-63
2020/12/22 12:43:30;;;;;;;0.70;0.20;;;13.40;99.90;;;;;;10269700;28;20060;-63
2020/12/22 12:48:33;;;;;;;1.17;0.25;;;13.30;99.90;;;;;;10268309;28;20418;-63
2020/12/22 12:53:36;;;;;;;1.20;0.20;;;13.30;99.90;;;;;;10266987;28;20046;-62
2020/12/22 12:58:48;;;;;;;1.75;0.30;;;13.40;99.90;;;;;;10260972;28;20073;-63
2020/12/22 13:03:52;;;;;;;0.52;0.20;;;13.30;99.90;;;;;;10269469;28;20057;-62
2020/12/22 13:08:53;;;;;;;2.13;0.20;;;13.30;99.90;;;;;;10266971;28;20088;-62
2020/12/22 13:13:54;;;;;;;0.95;0.20;;;13.30;99.90;;;;;;10270648;28;20051;-62
2020/12/22 13:18:56;;;;;;;0.40;0.30;;;13.40;99.90;;;;;;10280189;28;21309;-62
2020/12/22 13:23:57;;;;;;;0.50;0.50;;;13.40;99.90;;;;;;10269540;28;20050;-62
2020/12/22 13:29:06;;;;;;;1.55;0.55;;;13.40;99.90;;;;;;10268180;28;20508;-62
2020/12/22 13:34:07;;;;;;;0.45;0.30;;;13.40;99.90;;;;;;10268651;28;20049;-62
2020/12/22 13:39:08;;;;;;;1.08;0.30;;;13.30;99.90;;;;;;10265087;28;20129;-62
2020/12/22 13:44:10;;;;;;;1.73;0.40;;;13.30;99.90;;;;;;10267572;28;20057;-62
2020/12/22 13:49:11;;;;;;;0.68;0.30;;;13.30;99.90;;;;;;10271678;28;20046;-62
2020/12/22 13:54:12;;;;;;;0.35;0.30;;;13.10;99.90;;;;;;10266716;28;20097;-62
2020/12/22 13:59:29;;;;;;;1.33;0.40;;;13.10;99.90;;;;;;10200184;28;20042;-61
2020/12/22 14:04:34;;;;;;;0.85;0.40;;;13.20;99.90;;;;;;10266778;28;20531;-61
2020/12/22 14:09:36;;;;;;;3.40;0.40;;;13.10;99.90;;;;;;10265792;28;20057;-62
2020/12/22 14:14:38;;;;;;;0.30;0.30;;;13.20;99.90;;;;;;10270761;28;20096;-62
2020/12/22 14:19:39;;;;;;;0.50;0.40;;;13.20;99.90;;;;;;10263530;28;20056;-62
2020/12/22 14:24:44;;;;;;;0.30;0.20;;;13.20;99.90;;;;;;10262265;28;20408;-62
2020/12/22 14:29:50;;;;;;;0.55;0.35;;;13.20;99.90;;;;;;10263640;28;20061;-63
2020/12/22 14:34:51;;;;;;;0.75;0.20;;;13.30;99.90;;;;;;10256384;28;20054;-63
2020/12/22 14:39:52;;;;;;;0.73;0.30;;;13.30;99.90;;;;;;10249261;28;20050;-64
2020/12/22 14:44:53;;;;;;;1.48;0.20;;;13.20;99.90;;;;;;10257394;28;20111;-63
2020/12/22 14:49:55;;;;;;;1.50;0.20;;;13.20;99.90;;;;;;10258001;28;20382;-64
2020/12/22 14:54:56;;;;;;;0.60;0.25;;;13.20;99.90;;;;;;10241139;28;20046;-64
2020/12/22 15:00:13;;;;;;;0.30;0.20;;;13.30;99.90;;;;;;10257492;28;20054;-64
2020/12/22 15:05:15;;;;;;;0.20;0.20;;;13.30;99.90;;;;;;10260894;28;20580;-64
2020/12/22 15:10:16;;;;;;;0.50;0.40;;;13.30;99.90;;;;;;10269607;28;20049;-64
2020/12/22 15:15:17;;;;;;;0.82;0.30;;;13.30;99.90;;;;;;10261075;28;20050;-64
2020/12/22 15:20:19;;;;;;;0.40;0.30;;;13.30;99.90;;;;;;10266294;28;20077;-64
2020/12/22 15:25:20;;;;;;;0.50;0.22;;;13.30;99.90;;;;;;10267776;28;20405;-64
2020/12/22 15:30:27;;;;;;;0.30;0.27;;;13.30;99.90;;;;;;10269035;28;20508;-64
2020/12/22 15:35:28;;;;;;;0.40;0.10;;;13.30;99.90;;;;;;10266656;28;20057;-66
2020/12/22 15:40:29;;;;;;;0.85;0.20;;;13.30;99.90;;;;;;10262343;28;20069;-65
2020/12/22 15:45:32;;;;;;;0.20;0.20;;;13.30;99.90;;;;;;10263445;28;20049;-64
2020/12/22 15:50:33;;;;;;;0.13;0.10;;;13.30;99.90;;;;;;10263119;28;20038;-61
2020/12/22 15:55:36;;;;;;;0.45;0.20;;;13.20;99.90;;;;;;10263549;28;20124;-63
2020/12/22 16:00:47;;;;;;;0.40;0.20;;;13.30;99.90;;;;;;10263630;28;20385;-63
2020/12/22 16:05:51;;;;;;;0.20;0.20;;;13.30;99.90;;;;;;10237149;28;20042;-63
2020/12/22 16:10:52;;;;;;;0.80;0.20;;;13.30;99.90;;;;;;10223469;28;20318;-64
2020/12/22 16:15:53;;;;;;;1.25;0.40;;;13.20;99.90;;;;;;10259547;28;20069;-63
2020/12/22 16:21:11;;;;;;;1.33;0.30;;;13.20;99.90;;;;;;10201949;28;20064;-63
2020/12/22 16:26:14;;;;;;;1.33;0.20;;;13.20;99.90;;;;;;10188792;28;20049;-63
2020/12/22 16:31:16;;;;;;;1.30;0.20;;;13.10;99.90;;;;;;10262308;28;20059;-62
2020/12/22 16:36:21;;;;;;;0.30;0.20;;;13.20;99.90;;;;;;10263594;28;20373;-62
2020/12/22 16:41:22;;;;;;;0.28;0.20;;;13.20;99.90;;;;;;10267455;28;20824;-62
2020/12/22 16:46:26;;;;;;;1.52;0.20;;;13.20;99.90;;;;;;10266787;28;20058;-62
2020/12/22 16:51:28;;;;;;;0.40;0.30;;;13.20;99.90;;;;;;10262220;28;20751;-63
2020/12/22 16:56:30;;;;;;;0.30;0.20;;;13.20;99.90;;;;;;10266788;28;20058;-63
2020/12/22 17:01:31;;;;;;;0.30;0.20;;;13.20;99.90;;;;;;10266156;28;20062;-62
2020/12/22 17:06:34;;;;;;;0.65;0.20;;;13.10;99.90;;;;;;10252900;28;20530;-63
2020/12/22 17:11:35;;;;;;;0.50;0.35;;;13.10;99.90;;;;;;10250368;28;20425;-63
2020/12/22 17:16:37;;;;;;;1.25;0.77;;;13.10;99.90;;;;;;10266422;28;20046;-62
2020/12/22 17:21:39;;;;;;;1.67;0.30;;;13.00;99.90;;;;;;10228101;28;20046;-62
2020/12/22 17:26:40;;;;;;;1.48;0.70;;;13.00;99.90;;;;;;10258502;28;20054;-63
2020/12/22 17:31:42;;;;;;;0.40;0.40;;;13.00;99.90;;;;;;10251959;28;20117;-63
2020/12/22 17:36:44;;;;;;;2.28;0.85;;;13.00;99.90;;;;;;10252613;28;20809;-62
2020/12/22 17:41:45;;;;;;;0.57;0.50;;;12.90;99.90;;;;;;10256573;28;20417;-63
2020/12/22 17:46:51;;;;;;;1.35;1.08;;;12.90;99.90;;;;;;10267856;28;20054;-62
2020/12/22 17:51:53;;;;;;;1.25;0.70;;;12.80;99.90;;;;;;10249439;28;20046;-63
2020/12/22 17:56:55;;;;;;;1.48;1.00;;;12.80;99.90;;;;;;10266700;28;20050;-63
2020/12/22 18:01:57;;;;;;;5.10;1.80;;;12.70;99.90;;;;;;10267281;28;20565;-62
2020/12/22 18:06:59;;;;;;;0.50;0.30;;;12.60;99.90;;;;;;10292772;28;20042;-62
2020/12/22 18:12:00;;;;;;;0.88;0.50;;;12.50;99.90;;;;;;10266982;28;20054;-62
2020/12/22 18:17:01;;;;;;;1.20;0.88;;;12.50;99.90;;;;;;10260534;28;20189;-63
2020/12/22 18:22:03;;;;;;;1.25;1.15;;;12.40;99.90;;;;;;10241477;28;20055;-62
2020/12/22 18:27:04;;;;;;;2.88;1.30;;;12.30;99.90;;;;;;10257243;28;20497;-63
2020/12/22 18:32:12;;;;;;;2.03;1.55;;;12.40;99.90;;;;;;10272082;28;20050;-62
2020/12/22 18:37:13;;;;;;;3.10;1.88;;;12.40;99.90;;;;;;10266893;28;20141;-61
2020/12/22 18:42:15;;;;;;;4.63;1.88;;;12.40;99.90;;;;;;10261748;28;20417;-62
2020/12/22 18:47:17;;;;;;;3.00;2.22;;;12.40;99.90;;;;;;10264921;28;20138;-62
2020/12/22 18:52:18;;;;;;;2.40;1.75;;;12.40;99.90;;;;;;10267990;28;20050;-63
2020/12/22 18:57:19;;;;;;;2.85;2.10;;;12.40;99.90;;;;;;10260120;28;20106;-63
2020/12/22 19:02:33;;;;;;;1.85;1.48;;;12.40;99.90;;;;;;10260998;28;20097;-62
2020/12/22 19:07:35;;;;;;;1.55;1.30;;;12.40;99.90;;;;;;10266771;28;20058;-62
2020/12/22 19:12:40;;;;;;;2.63;1.92;;;12.50;99.90;;;;;;10244295;28;20081;-62
2020/12/22 19:17:41;;;;;;;4.95;2.08;;;12.50;99.90;;;;;;10263286;28;20051;-63
2020/12/22 19:22:43;;;;;;;5.35;1.38;;;12.50;99.90;;;;;;10269336;28;20493;-63
2020/12/22 19:27:44;;;;;;;2.08;1.63;;;12.50;99.90;;;;;;10234099;28;20747;-63
2020/12/22 19:32:50;;;;;;;3.80;1.98;;;12.50;99.90;;;;;;10259572;28;20155;-63
2020/12/22 19:37:51;;;;;;;4.35;2.10;;;12.50;99.90;;;;;;10263617;28;20398;-63
2020/12/22 19:42:52;;;;;;;6.28;3.53;;;12.50;99.90;;;;;;10267920;28;20062;-63
2020/12/22 19:47:55;;;;;;;6.00;3.40;;;12.40;99.90;;;;;;10262826;28;20077;-64
2020/12/22 19:52:57;;;;;;;6.75;3.95;;;12.40;99.90;;;;;;10265206;28;20054;-62
2020/12/22 19:57:58;;;;;;;5.93;3.67;;;12.40;99.90;;;;;;10265442;28;20042;-61
2020/12/22 20:03:09;;;;;;;8.20;5.50;;;12.40;99.90;;;;;;10263115;28;20042;-63
2020/12/22 20:08:10;;;;;;;7.35;4.45;;;12.40;99.90;;;;;;10276391;28;20054;-64
2020/12/22 20:13:12;;;;;;;10.35;5.18;;;12.40;99.90;;;;;;10258589;28;20051;-63
2020/12/22 20:18:13;;;;;;;7.72;4.57;;;12.40;99.90;;;;;;10258003;28;20050;-63
2020/12/22 20:23:14;;;;;;;7.78;5.25;;;12.40;99.90;;;;;;10255551;28;20051;-63
2020/12/22 20:28:16;;;;;;;10.30;6.28;;;12.40;99.90;;;;;;10255641;28;20066;-64
2020/12/22 20:33:30;;;;;;;7.93;6.10;;;12.40;99.90;;;;;;10260515;28;20042;-64
2020/12/22 20:38:32;;;;;;;11.38;7.18;;;12.50;99.90;;;;;;10261510;28;20063;-63
2020/12/22 20:43:34;;;;;;;9.13;6.82;;;12.50;99.90;;;;;;10251956;28;20065;-63
2020/12/22 20:48:35;;;;;;;8.88;6.55;;;12.50;99.90;;;;;;10265162;28;20164;-64
2020/12/22 20:53:37;;;;;;;9.75;6.28;;;12.50;99.90;;;;;;10252324;28;20056;-64
2020/12/22 20:58:39;;;;;;;11.02;8.00;;;12.60;99.90;;;;;;10254661;28;20050;-64
2020/12/22 21:03:46;;;;;;;;;;;12.50;99.90;;;;;;10262815;28;20138;-63
2020/12/22 21:08:48;;;;;;;14.10;7.53;;;12.60;99.90;;;;;;10269173;28;19936;-64
2020/12/22 21:13:50;;;;;;;14.60;8.40;;;12.50;99.90;;;;;;10268164;28;20050;-63
2020/12/22 21:18:51;;;;;;;11.63;7.32;;;12.50;99.90;;;;;;10266100;28;20142;-63
2020/12/22 21:23:53;;;;;;;14.20;8.63;;;12.40;99.90;;;;;;10265840;28;20065;-63
2020/12/22 21:28:54;;;;;;;13.80;8.43;;;12.30;99.90;;;;;;10271194;28;20055;-63
2020/12/22 21:34:06;;;;;;;12.23;7.68;;;12.40;99.90;;;;;;10176666;28;20049;-63
2020/12/22 21:39:08;;;;;;;13.48;9.18;;;12.40;99.90;;;;;;10285798;28;20034;-63
2020/12/22 21:44:10;;;;;;;13.25;9.23;;;12.40;99.90;;;;;;10261674;28;20101;-63
2020/12/22 21:49:11;;;;;;;14.80;8.68;;;12.40;99.90;;;;;;10267232;28;20054;-63
2020/12/22 21:54:12;;;;;;;8.63;5.75;;;12.40;99.90;;;;;;10270286;28;20046;-63
2020/12/22 21:59:15;;;;;;;9.15;6.03;;;12.40;99.90;;;;;;10276953;28;20046;-63
2020/12/22 22:04:24;;;;;;;2.67;2.13;;;12.40;99.90;;;;;;10272118;28;20053;-64
2020/12/22 22:09:26;;;;;;;1.02;0.55;;;12.30;99.90;;;;;;10272202;28;20054;-64
2020/12/22 22:14:27;;;;;;;1.08;0.40;;;12.30;99.90;;;;;;10276938;28;20385;-64
2020/12/22 22:19:28;;;;;;;0.50;0.30;;;12.40;99.90;;;;;;10271705;28;20452;-64
2020/12/22 22:24:29;;;;;;;0.50;0.40;;;12.40;99.90;;;;;;10268155;28;20133;-64
2020/12/22 22:29:31;;;;;;;0.38;0.30;;;12.30;99.90;;;;;;10272928;28;20042;-63
2020/12/22 22:34:43;;;;;;;0.45;0.32;;;12.40;99.90;;;;;;10271259;28;20054;-64
2020/12/22 22:39:44;;;;;;;1.90;0.60;;;12.30;99.90;;;;;;10271112;28;20046;-64
2020/12/22 22:44:48;;;;;;;2.63;1.27;;;12.30;99.90;;;;;;10273629;28;20044;-64
2020/12/22 22:49:50;;;;;;;4.32;2.67;;;12.30;99.90;;;;;;10265653;28;20060;-64
2020/12/22 22:54:51;;;;;;;4.35;2.78;;;12.30;99.90;;;;;;10238506;28;20038;-63
2020/12/22 22:59:52;;;;;;;4.65;2.92;;;12.40;99.90;;;;;;10264133;28;20057;-63
2020/12/22 23:05:02;;;;;;;4.47;3.08;;;12.30;99.90;;;;;;10253045;28;20121;-64
2020/12/22 23:10:04;;;;;;;5.40;3.05;;;12.30;99.90;;;;;;10278796;28;20061;-63
2020/12/22 23:15:06;;;;;;;8.20;3.97;;;12.30;99.90;;;;;;10278895;28;20058;-63
2020/12/22 23:20:09;;;;;;;7.30;3.70;;;12.30;99.90;;;;;;10270736;28;20105;-64
2020/12/22 23:25:10;;;;;;;6.97;3.83;;;12.30;99.90;;;;;;10281778;28;20045;-64
2020/12/22 23:30:11;;;;;;;6.38;3.17;;;12.30;99.90;;;;;;10285974;28;20405;-65
2020/12/22 23:35:30;;;;;;;8.07;4.47;;;12.30;99.90;;;;;;10281571;28;20066;-64
2020/12/22 23:40:32;;;;;;;10.75;5.70;;;12.40;99.90;;;;;;10281803;28;20101;-62
2020/12/22 23:45:33;;;;;;;14.88;7.38;;;12.30;99.90;;;;;;10282033;28;20058;-63
2020/12/22 23:50:34;;;;;;;13.65;7.38;;;12.30;99.90;;;;;;10280436;28;20042;-62
2020/12/22 23:55:35;;;;;;;16.45;6.88;;;12.30;99.90;;;;;;10283234;28;20073;-63
